Time;durP1;ratioP1;P1;durP2;ratioP2;P2;SDS_P1;SDS_P2;PMS_P1;PMS_P2;Temp;Humidity;BMP_temperature;BMP_pressure;BME280_temperature;BME280_humidity;BME280_pressure;Samples;Min_cycle;Max_cycle;Signal;HPM_P1;HPM_P2
2023/11/29 00:00:10;;;;;;;61.07;22.80;;;-2.50;99.90;;;;;;4957700;29;20198;-81
2023/11/29 00:02:37;;;;;;;63.63;23.30;;;-2.50;99.90;;;;;;4957616;29;20214;-80
2023/11/29 00:05:10;;;;;;;64.23;23.10;;;-2.50;99.90;;;;;;4941130;29;20201;-80
2023/11/29 00:07:40;;;;;;;65.43;24.17;;;-2.40;99.90;;;;;;4957904;29;20203;-80
2023/11/29 00:10:08;;;;;;;63.10;22.40;;;-2.40;99.90;;;;;;4940239;29;20244;-80
2023/11/29 00:12:36;;;;;;;61.70;21.77;;;-2.30;99.90;;;;;;4956733;29;20198;-80
2023/11/29 00:15:04;;;;;;;57.33;21.27;;;-2.50;99.90;;;;;;4956686;29;20197;-80
2023/11/29 00:17:31;;;;;;;60.50;21.93;;;-2.40;99.90;;;;;;4956639;29;20726;-81
2023/11/29 00:19:58;;;;;;;61.03;22.50;;;-2.50;99.90;;;;;;4956891;29;20225;-80
2023/11/29 00:22:25;;;;;;;61.43;21.70;;;-2.40;99.90;;;;;;4956852;29;20285;-80
2023/11/29 00:24:52;;;;;;;61.10;22.13;;;-2.50;99.90;;;;;;4956817;29;20203;-80
2023/11/29 00:27:21;;;;;;;65.67;23.47;;;-2.40;99.90;;;;;;4956391;29;20212;-80
2023/11/29 00:29:48;;;;;;;61.77;22.47;;;-2.50;99.90;;;;;;4955586;29;20222;-82
2023/11/29 00:32:15;;;;;;;62.10;23.47;;;-2.40;99.90;;;;;;4956664;29;20194;-82
2023/11/29 00:34:42;;;;;;;64.67;23.07;;;-2.30;99.90;;;;;;4956740;29;20229;-82
2023/11/29 00:37:09;;;;;;;69.90;24.70;;;-2.30;99.90;;;;;;4956584;29;20220;-82
2023/11/29 00:39:36;;;;;;;64.77;23.57;;;-2.30;99.90;;;;;;4957359;29;20221;-82
2023/11/29 00:42:04;;;;;;;63.87;23.37;;;-2.30;99.90;;;;;;4939177;29;20310;-81
2023/11/29 00:44:31;;;;;;;68.73;25.33;;;-2.20;99.90;;;;;;4954947;29;20209;-81
2023/11/29 00:46:58;;;;;;;71.53;25.00;;;-2.30;99.90;;;;;;4955304;29;20286;-81
2023/11/29 00:49:25;;;;;;;66.53;24.47;;;-2.50;99.90;;;;;;4956255;29;20216;-81
2023/11/29 00:51:52;;;;;;;69.77;24.10;;;-2.80;99.90;;;;;;4956278;29;20690;-80
2023/11/29 00:54:20;;;;;;;66.60;24.07;;;-3.00;99.90;;;;;;4956100;29;20635;-80
2023/11/29 00:56:47;;;;;;;63.23;23.43;;;-3.00;99.90;;;;;;4956155;29;20623;-81
2023/11/29 00:59:14;;;;;;;69.50;23.80;;;-2.90;99.90;;;;;;4938433;28;20206;-82
2023/11/29 01:01:41;;;;;;;70.20;23.50;;;-2.80;99.90;;;;;;4937957;29;20671;-81
2023/11/29 01:04:09;;;;;;;59.97;21.50;;;-2.70;99.90;;;;;;4938606;29;20210;-82
2023/11/29 01:06:37;;;;;;;57.47;21.63;;;-2.80;99.90;;;;;;4938727;29;20198;-82
2023/11/29 01:09:06;;;;;;;61.13;20.57;;;-3.00;99.90;;;;;;4955715;29;20182;-82
2023/11/29 01:11:33;;;;;;;55.67;20.33;;;-2.90;99.90;;;;;;4955889;29;20234;-81
2023/11/29 01:14:00;;;;;;;52.50;19.50;;;-2.80;99.90;;;;;;4956006;29;20199;-82
2023/11/29 01:16:28;;;;;;;54.37;20.47;;;-2.70;99.90;;;;;;4955909;29;20199;-82
2023/11/29 01:18:55;;;;;;;57.93;20.80;;;-2.80;99.90;;;;;;4938581;29;20238;-82
2023/11/29 01:21:22;;;;;;;55.43;19.83;;;-3.00;99.90;;;;;;4955520;29;20726;-82
2023/11/29 01:23:58;;;;;;;50.00;18.97;;;-3.00;99.90;;;;;;4955640;29;20194;-82
2023/11/29 01:26:25;;;;;;;53.53;18.73;;;-3.10;99.90;;;;;;4955757;29;20223;-79
2023/11/29 01:28:52;;;;;;;49.50;19.53;;;-3.20;99.90;;;;;;4954269;29;20198;-82
2023/11/29 01:31:25;;;;;;;51.53;18.00;;;-3.30;99.90;;;;;;4921713;29;20249;-82
2023/11/29 01:33:54;;;;;;;49.50;19.00;;;-3.40;99.90;;;;;;4955657;29;20246;-80
2023/11/29 01:36:21;;;;;;;49.30;18.67;;;-3.40;99.90;;;;;;4955646;29;20359;-80
2023/11/29 01:38:50;;;;;;;45.90;17.67;;;-3.30;99.90;;;;;;4955735;29;20210;-80
2023/11/29 01:41:17;;;;;;;49.17;17.33;;;-3.20;99.90;;;;;;4938082;29;20222;-81
2023/11/29 01:43:44;;;;;;;49.43;17.67;;;-3.20;99.90;;;;;;4955333;29;20214;-81
2023/11/29 01:46:12;;;;;;;46.93;17.60;;;-3.00;99.90;;;;;;4938354;29;20210;-81
2023/11/29 01:48:40;;;;;;;46.53;17.20;;;-3.20;99.90;;;;;;4938351;29;20253;-82
2023/11/29 01:51:08;;;;;;;44.27;15.83;;;-3.20;99.90;;;;;;4955285;29;20269;-82
2023/11/29 01:53:37;;;;;;;48.13;16.70;;;-3.20;99.90;;;;;;4955165;29;20203;-81
2023/11/29 01:56:07;;;;;;;46.37;16.37;;;-3.30;99.90;;;;;;4955122;29;20234;-81
2023/11/29 01:58:34;;;;;;;41.73;16.00;;;-3.20;99.90;;;;;;4954990;29;20690;-81
2023/11/29 02:01:02;;;;;;;48.00;17.00;;;-3.30;99.90;;;;;;4954890;29;20670;-81
2023/11/29 02:03:29;;;;;;;44.37;16.90;;;-3.40;99.90;;;;;;4954935;29;20203;-81
2023/11/29 02:05:57;;;;;;;42.13;14.93;;;-3.40;99.90;;;;;;4954730;29;20190;-81
2023/11/29 02:08:25;;;;;;;37.23;14.70;;;-3.30;99.90;;;;;;4953681;29;20194;-81
2023/11/29 02:10:52;;;;;;;35.57;13.20;;;-3.40;99.90;;;;;;4954542;28;20226;-80
2023/11/29 02:13:20;;;;;;;38.83;13.53;;;-3.30;99.90;;;;;;4937413;29;20679;-81
2023/11/29 02:15:48;;;;;;;38.80;14.83;;;-3.40;99.90;;;;;;4937593;29;20195;-81
2023/11/29 02:18:15;;;;;;;34.73;13.50;;;-3.30;99.90;;;;;;4954840;29;20299;-82
2023/11/29 02:20:43;;;;;;;35.73;14.10;;;-3.20;99.90;;;;;;4954481;29;20209;-82
2023/11/29 02:23:22;;;;;;;36.97;14.83;;;-3.10;99.90;;;;;;4954741;29;20199;-82
2023/11/29 02:25:50;;;;;;;35.73;14.00;;;-3.20;99.90;;;;;;4954814;29;20297;-82
2023/11/29 02:28:18;;;;;;;37.80;13.67;;;-3.10;99.90;;;;;;4936957;29;20306;-83
2023/11/29 02:30:45;;;;;;;34.90;14.33;;;-3.10;99.90;;;;;;4954614;29;20316;-83
2023/11/29 02:33:12;;;;;;;39.40;13.73;;;-2.90;99.90;;;;;;4938061;29;20198;-82
2023/11/29 02:35:39;;;;;;;38.47;14.57;;;-2.80;99.90;;;;;;4954740;29;20617;-81
2023/11/29 02:38:09;;;;;;;39.27;14.43;;;-2.80;99.90;;;;;;4954458;29;20204;-81
2023/11/29 02:40:36;;;;;;;37.53;14.33;;;-2.90;99.90;;;;;;4954277;29;20305;-81
2023/11/29 02:43:03;;;;;;;37.53;14.47;;;-2.80;99.90;;;;;;4954543;29;20197;-81
2023/11/29 02:45:32;;;;;;;39.57;14.50;;;-2.90;99.90;;;;;;4954494;29;20202;-81
2023/11/29 02:47:58;;;;;;;39.33;14.80;;;-2.90;99.90;;;;;;4954516;29;20257;-82
2023/11/29 02:50:26;;;;;;;38.43;15.47;;;-2.90;99.90;;;;;;4954453;29;20214;-81
2023/11/29 02:52:53;;;;;;;42.53;15.50;;;-2.90;99.90;;;;;;4954183;29;20276;-82
2023/11/29 02:55:20;;;;;;;42.33;15.80;;;-2.90;99.90;;;;;;4954155;29;20234;-81
2023/11/29 02:57:47;;;;;;;40.83;15.93;;;-2.90;99.90;;;;;;4954420;29;20771;-81
2023/11/29 03:00:15;;;;;;;39.83;15.90;;;-3.00;99.90;;;;;;4954004;29;20230;-81
2023/11/29 03:02:42;;;;;;;41.83;15.00;;;-3.10;99.90;;;;;;4954077;29;20647;-81
2023/11/29 03:05:10;;;;;;;42.47;15.23;;;-3.20;99.90;;;;;;4954269;29;20286;-81
2023/11/29 03:07:37;;;;;;;42.43;15.83;;;-3.30;99.90;;;;;;4953993;29;20201;-80
2023/11/29 03:10:05;;;;;;;43.50;15.73;;;-3.40;99.90;;;;;;4954078;29;20227;-81
2023/11/29 03:12:32;;;;;;;45.13;16.20;;;-3.50;99.90;;;;;;4954054;29;20198;-83
2023/11/29 03:14:59;;;;;;;43.57;16.33;;;-3.40;99.90;;;;;;4954233;29;20279;-82
2023/11/29 03:17:26;;;;;;;42.57;15.53;;;-3.50;99.90;;;;;;4937263;29;20192;-82
2023/11/29 03:19:53;;;;;;;44.10;16.60;;;-3.60;99.90;;;;;;4936612;29;20229;-80
2023/11/29 03:22:21;;;;;;;38.70;15.67;;;-3.60;99.90;;;;;;4954121;28;20254;-82
2023/11/29 03:24:48;;;;;;;36.83;14.53;;;-3.50;99.90;;;;;;4956928;29;20194;-82
2023/11/29 03:27:19;;;;;;;42.73;15.10;;;-3.50;99.90;;;;;;4957754;28;20309;-82
2023/11/29 03:29:46;;;;;;;35.97;14.17;;;-3.60;99.90;;;;;;4940714;29;20191;-83
2023/11/29 03:32:13;;;;;;;38.73;14.77;;;-3.60;99.90;;;;;;4957762;29;20194;-82
2023/11/29 03:34:40;;;;;;;42.00;15.20;;;-3.60;99.90;;;;;;4957448;29;20718;-83
2023/11/29 03:37:08;;;;;;;38.97;13.87;;;-3.50;99.90;;;;;;4957718;29;20305;-84
2023/11/29 03:39:36;;;;;;;36.63;14.03;;;-3.40;99.90;;;;;;4940604;29;20230;-84
2023/11/29 03:42:03;;;;;;;40.00;15.30;;;-3.30;99.90;;;;;;4923791;29;20732;-86
2023/11/29 03:44:33;;;;;;;41.37;15.10;;;-3.10;99.90;;;;;;4940101;29;20198;-89
2023/11/29 03:47:01;;;;;;;43.37;15.37;;;-3.20;99.90;;;;;;4956352;29;20201;-88
2023/11/29 03:49:28;;;;;;;40.27;16.07;;;-3.30;99.90;;;;;;4955853;28;20229;-90
2023/11/29 03:51:55;;;;;;;39.50;15.10;;;-3.20;99.90;;;;;;4939967;29;20640;-89
2023/11/29 03:54:23;;;;;;;42.90;15.47;;;-3.20;99.90;;;;;;4957283;29;20797;-90
2023/11/29 03:56:51;;;;;;;45.93;15.23;;;-3.30;99.90;;;;;;4940001;29;20322;-88
2023/11/29 03:59:18;;;;;;;39.10;15.13;;;-3.40;99.90;;;;;;4957307;29;20194;-88
2023/11/29 04:01:46;;;;;;;40.77;15.13;;;-3.50;99.90;;;;;;4940013;29;20199;-89
2023/11/29 04:04:13;;;;;;;48.43;16.07;;;-3.60;99.90;;;;;;4957003;28;20710;-88
2023/11/29 04:06:41;;;;;;;47.87;16.27;;;-3.60;99.90;;;;;;4940078;29;20265;-89
2023/11/29 04:09:09;;;;;;;46.00;16.17;;;-3.60;99.90;;;;;;4939938;29;20210;-90
2023/11/29 04:11:36;;;;;;;44.80;16.47;;;-3.40;99.90;;;;;;4923994;29;20264;-84
2023/11/29 04:14:03;;;;;;;43.43;16.37;;;-3.10;99.90;;;;;;4957018;29;20205;-85
2023/11/29 04:16:31;;;;;;;48.63;16.00;;;-3.10;99.90;;;;;;4956731;29;20684;-84
2023/11/29 04:18:58;;;;;;;45.73;16.47;;;-3.10;99.90;;;;;;4956899;29;20206;-84
2023/11/29 04:21:27;;;;;;;44.93;15.90;;;-3.20;99.90;;;;;;4956652;29;20221;-85
2023/11/29 04:23:55;;;;;;;42.83;15.67;;;-3.20;99.90;;;;;;4956644;29;20204;-85
2023/11/29 04:26:34;;;;;;;41.33;15.73;;;-3.30;99.90;;;;;;4956676;29;20217;-85
2023/11/29 04:29:06;;;;;;;45.33;14.73;;;-3.50;99.90;;;;;;4957073;29;20648;-84
2023/11/29 04:31:35;;;;;;;40.40;14.87;;;-3.60;99.90;;;;;;4956760;29;20221;-84
2023/11/29 04:34:03;;;;;;;43.43;15.63;;;-3.70;99.90;;;;;;4956634;28;20194;-84
2023/11/29 04:36:44;;;;;;;47.83;15.27;;;-3.80;99.90;;;;;;4925365;29;20663;-84
2023/11/29 04:39:16;;;;;;;41.50;15.47;;;-3.70;99.90;;;;;;4955189;29;20194;-84
2023/11/29 04:41:43;;;;;;;40.30;15.03;;;-3.80;99.90;;;;;;4956474;29;20722;-84
2023/11/29 04:44:11;;;;;;;42.40;15.50;;;-3.80;99.90;;;;;;4939135;29;20730;-84
2023/11/29 04:46:38;;;;;;;42.30;15.03;;;-4.00;99.90;;;;;;4955103;29;20237;-84
2023/11/29 04:49:05;;;;;;;40.90;15.13;;;-4.00;99.90;;;;;;4939193;29;20194;-84
2023/11/29 04:51:33;;;;;;;40.70;14.43;;;-4.00;99.90;;;;;;4939338;29;20683;-91
2023/11/29 04:54:01;;;;;;;44.50;15.53;;;-3.90;99.90;;;;;;4939646;29;20217;-89
2023/11/29 04:56:29;;;;;;;43.67;14.77;;;-3.90;99.90;;;;;;4938880;29;20246;-90
2023/11/29 04:58:59;;;;;;;40.57;14.60;;;-3.90;99.90;;;;;;4939604;29;20218;-89
2023/11/29 05:01:27;;;;;;;48.10;15.70;;;-3.90;99.90;;;;;;4939372;29;20678;-89
2023/11/29 05:03:55;;;;;;;43.57;15.03;;;-4.00;99.90;;;;;;4940157;29;20198;-89
2023/11/29 05:06:25;;;;;;;49.07;15.03;;;-4.20;99.90;;;;;;4956502;29;20227;-88
2023/11/29 05:08:52;;;;;;;49.40;15.37;;;-4.20;99.90;;;;;;4957494;29;20566;-89
2023/11/29 05:11:20;;;;;;;53.70;16.40;;;-4.20;99.90;;;;;;4956049;29;20293;-89
2023/11/29 05:13:48;;;;;;;47.73;16.07;;;-4.10;99.90;;;;;;4939662;29;20230;-87
2023/11/29 05:16:15;;;;;;;51.43;17.13;;;-4.00;99.90;;;;;;4938703;29;20205;-88
2023/11/29 05:18:43;;;;;;;54.33;17.03;;;-3.90;99.90;;;;;;4955592;29;20599;-88
2023/11/29 05:21:10;;;;;;;55.00;17.50;;;-3.90;99.90;;;;;;4938784;29;20289;-88
2023/11/29 05:23:38;;;;;;;52.10;16.77;;;-3.90;99.90;;;;;;4938420;29;20237;-89
2023/11/29 05:26:09;;;;;;;58.67;17.83;;;-3.80;99.90;;;;;;4923253;29;20661;-88
2023/11/29 05:28:37;;;;;;;49.63;16.30;;;-3.70;99.90;;;;;;4956199;29;20294;-89
2023/11/29 05:31:05;;;;;;;48.77;16.60;;;-3.90;99.90;;;;;;4939467;29;20679;-88
2023/11/29 05:33:33;;;;;;;57.53;17.73;;;-4.00;99.90;;;;;;4945074;29;20225;-89
2023/11/29 05:36:01;;;;;;;54.97;17.80;;;-3.90;99.90;;;;;;4941818;29;20195;-91
2023/11/29 05:38:28;;;;;;;57.20;17.70;;;-3.80;99.90;;;;;;4961568;29;20262;-88
2023/11/29 05:40:57;;;;;;;53.07;18.83;;;-3.90;99.90;;;;;;4942536;29;20632;-89
2023/11/29 05:43:25;;;;;;;53.40;16.90;;;-3.90;99.90;;;;;;4939002;29;20194;-89
2023/11/29 05:45:52;;;;;;;55.50;16.77;;;-4.00;99.90;;;;;;4956633;28;20221;-92
2023/11/29 05:48:19;;;;;;;51.20;16.10;;;-3.90;99.90;;;;;;4938034;29;20198;-81
2023/11/29 05:50:47;;;;;;;48.87;16.30;;;-3.90;99.90;;;;;;4954843;29;20309;-82
2023/11/29 05:53:14;;;;;;;51.03;16.90;;;-3.90;99.90;;;;;;4955003;29;20222;-82
2023/11/29 05:55:42;;;;;;;50.40;16.77;;;-3.90;99.90;;;;;;4954807;29;20239;-82
2023/11/29 05:58:09;;;;;;;47.43;15.57;;;-3.70;99.90;;;;;;4954906;29;20198;-82
2023/11/29 06:00:36;;;;;;;47.00;16.83;;;-3.70;99.90;;;;;;4937852;29;20198;-81
2023/11/29 06:03:03;;;;;;;51.03;16.27;;;-3.70;99.90;;;;;;4955110;29;20197;-81
2023/11/29 06:05:30;;;;;;;45.50;16.37;;;-3.70;99.90;;;;;;4955037;29;20201;-81
2023/11/29 06:07:58;;;;;;;48.80;16.30;;;-3.70;99.90;;;;;;4954804;29;20191;-81
2023/11/29 06:10:25;;;;;;;54.10;17.13;;;-3.70;99.90;;;;;;4954890;29;20252;-81
2023/11/29 06:12:52;;;;;;;43.83;15.33;;;-3.60;99.90;;;;;;4954654;29;20761;-80
2023/11/29 06:15:20;;;;;;;44.40;15.40;;;-3.60;99.90;;;;;;4954729;29;20199;-81
2023/11/29 06:17:47;;;;;;;48.40;17.13;;;-3.70;99.90;;;;;;4954757;29;20191;-81
2023/11/29 06:20:18;;;;;;;41.00;16.20;;;-3.70;99.90;;;;;;4954753;29;20206;-81
2023/11/29 06:22:46;;;;;;;44.70;15.87;;;-3.70;99.90;;;;;;4937800;29;20200;-80
2023/11/29 06:25:14;;;;;;;40.90;15.13;;;-3.50;99.90;;;;;;4954807;29;20244;-81
2023/11/29 06:27:44;;;;;;;42.63;15.73;;;-3.50;99.90;;;;;;4954721;29;20682;-80
2023/11/29 06:30:12;;;;;;;45.13;15.43;;;-3.50;99.90;;;;;;4954623;29;20261;-83
2023/11/29 06:32:41;;;;;;;40.23;15.23;;;-3.50;99.90;;;;;;4936982;29;20237;-80
2023/11/29 06:35:12;;;;;;;45.10;16.07;;;-3.40;99.90;;;;;;4954767;29;20186;-80
2023/11/29 06:37:42;;;;;;;44.80;15.87;;;-3.30;99.90;;;;;;4954358;29;20639;-81
2023/11/29 06:40:16;;;;;;;43.67;16.23;;;-3.30;99.90;;;;;;4937980;29;20249;-84
2023/11/29 06:42:44;;;;;;;37.90;15.43;;;-3.30;99.90;;;;;;4954806;29;20205;-84
2023/11/29 06:45:11;;;;;;;37.53;14.27;;;-3.40;99.90;;;;;;4954088;29;20282;-84
2023/11/29 06:47:39;;;;;;;43.80;14.70;;;-3.40;99.90;;;;;;4937102;29;20273;-84
2023/11/29 06:50:06;;;;;;;40.40;15.53;;;-3.40;99.90;;;;;;4937048;29;20393;-84
2023/11/29 06:52:34;;;;;;;40.33;15.70;;;-3.40;99.90;;;;;;4954433;29;20633;-84
2023/11/29 06:55:01;;;;;;;49.00;16.70;;;-3.40;99.90;;;;;;4936614;29;20236;-85
2023/11/29 06:57:30;;;;;;;44.97;16.43;;;-3.40;99.90;;;;;;4936964;29;20619;-85
2023/11/29 06:59:58;;;;;;;45.07;17.57;;;-3.50;99.90;;;;;;4924652;29;20202;-84
2023/11/29 07:02:25;;;;;;;51.70;18.20;;;-3.50;99.90;;;;;;4958609;29;20233;-85
2023/11/29 07:04:52;;;;;;;48.10;16.63;;;-3.60;99.90;;;;;;4958196;29;20202;-85
2023/11/29 07:07:19;;;;;;;49.47;17.20;;;-3.70;99.90;;;;;;4958060;29;20253;-84
2023/11/29 07:09:47;;;;;;;51.47;17.27;;;-3.60;99.90;;;;;;4940625;29;20198;-84
2023/11/29 07:12:14;;;;;;;48.20;17.13;;;-3.60;99.90;;;;;;4957894;29;20230;-84
2023/11/29 07:14:41;;;;;;;50.50;17.60;;;-3.60;99.90;;;;;;4957479;29;20246;-84
2023/11/29 07:17:09;;;;;;;51.60;18.23;;;-3.60;99.90;;;;;;4940644;29;20198;-84
2023/11/29 07:19:40;;;;;;;58.03;20.13;;;-3.40;99.90;;;;;;4941410;29;20262;-83
2023/11/29 07:22:07;;;;;;;56.63;19.60;;;-3.50;99.90;;;;;;4940284;29;20293;-84
2023/11/29 07:24:35;;;;;;;61.13;20.40;;;-3.30;99.90;;;;;;4957705;29;20246;-84
2023/11/29 07:27:02;;;;;;;52.57;19.00;;;-3.30;99.90;;;;;;4940322;29;20325;-84
2023/11/29 07:29:30;;;;;;;52.00;18.13;;;-3.40;99.90;;;;;;4957524;29;20699;-83
2023/11/29 07:31:58;;;;;;;44.80;17.27;;;-3.40;99.90;;;;;;4940698;29;20281;-84
2023/11/29 07:34:25;;;;;;;46.67;18.27;;;-3.50;99.90;;;;;;4957923;29;20685;-84
2023/11/29 07:36:53;;;;;;;49.60;17.87;;;-3.50;99.90;;;;;;4923776;29;20213;-85
2023/11/29 07:39:21;;;;;;;47.57;17.90;;;-3.40;99.90;;;;;;4942442;29;20204;-85
2023/11/29 07:41:49;;;;;;;40.77;17.27;;;-3.30;99.90;;;;;;4940198;29;20297;-85
2023/11/29 07:44:16;;;;;;;46.53;17.87;;;-3.30;99.90;;;;;;4956050;29;20721;-85
2023/11/29 07:46:44;;;;;;;43.43;17.13;;;-3.30;99.90;;;;;;4957160;29;20195;-85
2023/11/29 07:49:12;;;;;;;45.80;17.47;;;-3.30;99.90;;;;;;4940300;29;20721;-85
2023/11/29 07:51:40;;;;;;;42.20;17.37;;;-3.30;99.90;;;;;;4939851;29;20257;-84
2023/11/29 07:54:07;;;;;;;49.77;19.07;;;-3.30;99.90;;;;;;4957698;29;20186;-85
2023/11/29 07:56:35;;;;;;;49.50;20.00;;;-3.30;99.90;;;;;;4924556;29;20779;-86
2023/11/29 07:59:02;;;;;;;52.63;19.03;;;-3.30;99.90;;;;;;4957622;29;20550;-84
2023/11/29 08:01:29;;;;;;;55.17;20.93;;;-3.30;99.90;;;;;;4957482;29;20729;-84
2023/11/29 08:03:57;;;;;;;62.70;21.43;;;-3.30;99.90;;;;;;4956973;29;20275;-84
2023/11/29 08:06:24;;;;;;;55.83;19.50;;;-3.20;99.90;;;;;;4955747;29;20531;-84
2023/11/29 08:08:51;;;;;;;53.93;19.70;;;-3.40;99.90;;;;;;4955759;28;20557;-84
2023/11/29 08:11:19;;;;;;;56.87;20.50;;;-3.30;99.90;;;;;;4939857;29;20228;-84
2023/11/29 08:13:47;;;;;;;55.07;20.13;;;-3.30;99.90;;;;;;4955704;29;20290;-86
2023/11/29 08:16:16;;;;;;;59.10;19.87;;;-3.30;99.90;;;;;;4939809;29;20272;-85
2023/11/29 08:18:43;;;;;;;59.07;20.03;;;-3.30;99.90;;;;;;4939573;29;20202;-85
2023/11/29 08:21:10;;;;;;;63.83;21.43;;;-3.40;99.90;;;;;;4956664;29;20205;-85
2023/11/29 08:23:38;;;;;;;62.47;20.97;;;-3.30;99.90;;;;;;4956872;29;20218;-85
2023/11/29 08:26:07;;;;;;;56.13;20.07;;;-3.40;99.90;;;;;;4939488;29;20203;-84
2023/11/29 08:28:34;;;;;;;59.90;19.80;;;-3.30;99.90;;;;;;4955218;28;20262;-84
2023/11/29 08:31:02;;;;;;;54.93;19.00;;;-3.20;99.90;;;;;;4939114;29;20198;-84
2023/11/29 08:33:30;;;;;;;57.07;19.37;;;-3.10;99.90;;;;;;4956118;29;20240;-84
2023/11/29 08:35:57;;;;;;;53.20;18.33;;;-3.10;99.90;;;;;;4956679;29;20198;-84
2023/11/29 08:38:25;;;;;;;52.80;17.53;;;-2.90;99.90;;;;;;4939094;29;20589;-84
2023/11/29 08:40:53;;;;;;;58.90;18.70;;;-2.80;99.90;;;;;;4955666;29;20233;-83
2023/11/29 08:43:20;;;;;;;53.97;19.17;;;-2.60;99.90;;;;;;4940474;29;20195;-84
2023/11/29 08:45:50;;;;;;;58.60;18.87;;;-2.80;99.90;;;;;;4956582;29;20246;-83
2023/11/29 08:48:18;;;;;;;51.00;17.70;;;-2.70;99.90;;;;;;4939023;29;20210;-84
2023/11/29 08:50:49;;;;;;;45.13;16.40;;;-2.70;99.90;;;;;;4939835;29;20206;-84
2023/11/29 08:53:17;;;;;;;43.93;17.23;;;-2.60;99.90;;;;;;4955814;29;20214;-84
2023/11/29 08:55:53;;;;;;;46.67;16.70;;;-2.50;99.90;;;;;;4939811;29;20235;-82
2023/11/29 08:58:20;;;;;;;44.97;17.27;;;-2.70;99.90;;;;;;4939056;29;20216;-83
2023/11/29 09:00:47;;;;;;;43.57;15.33;;;-2.70;99.90;;;;;;4956120;29;20551;-83
2023/11/29 09:03:15;;;;;;;44.23;15.87;;;-2.50;99.90;;;;;;4938878;29;20194;-86
2023/11/29 09:05:43;;;;;;;42.57;16.03;;;-2.30;99.90;;;;;;4939033;29;20198;-86
2023/11/29 09:08:11;;;;;;;48.63;16.57;;;-2.20;99.90;;;;;;4938948;29;20651;-85
2023/11/29 09:10:39;;;;;;;40.67;14.80;;;-2.20;99.90;;;;;;4922721;29;20275;-86
2023/11/29 09:13:07;;;;;;;40.60;15.90;;;-2.20;99.90;;;;;;4955756;29;20219;-88
2023/11/29 09:15:34;;;;;;;40.57;15.27;;;-2.20;99.90;;;;;;4938999;29;20192;-89
2023/11/29 09:18:03;;;;;;;41.97;15.37;;;-2.20;99.90;;;;;;4955700;29;20198;-85
2023/11/29 09:20:30;;;;;;;41.10;15.70;;;-2.30;99.90;;;;;;4955938;28;20194;-86
2023/11/29 09:22:58;;;;;;;37.97;15.13;;;-2.40;99.90;;;;;;4955296;29;20195;-86
2023/11/29 09:25:25;;;;;;;41.67;15.83;;;-2.30;99.90;;;;;;4955408;29;20313;-86
2023/11/29 09:27:52;;;;;;;44.50;15.57;;;-2.30;99.90;;;;;;4955258;28;20534;-86
2023/11/29 09:30:21;;;;;;;37.13;14.67;;;-2.20;99.90;;;;;;4954005;29;20202;-85
2023/11/29 09:32:48;;;;;;;37.13;14.57;;;-2.20;99.90;;;;;;4954083;29;20730;-83
2023/11/29 09:35:15;;;;;;;32.70;13.77;;;-2.20;99.90;;;;;;4953920;29;20589;-85
2023/11/29 09:37:43;;;;;;;37.37;13.77;;;-2.40;99.90;;;;;;4925770;29;20207;-87
2023/11/29 09:40:11;;;;;;;33.33;13.07;;;-2.40;99.90;;;;;;4923755;29;20210;-83
2023/11/29 09:42:38;;;;;;;38.53;13.90;;;-2.50;99.90;;;;;;4955407;29;20217;-85
2023/11/29 09:45:17;;;;;;;37.70;14.43;;;-2.20;99.90;;;;;;4954990;29;20241;-87
2023/11/29 09:47:45;;;;;;;37.10;14.37;;;-2.40;99.90;;;;;;4938441;29;20654;-86
2023/11/29 09:50:15;;;;;;;36.63;14.07;;;-2.50;99.90;;;;;;4937910;29;20285;-86
2023/11/29 09:52:42;;;;;;;34.07;12.90;;;-2.40;99.90;;;;;;4955177;29;20626;-83
2023/11/29 09:55:12;;;;;;;37.93;14.23;;;-2.30;99.90;;;;;;4934305;29;20243;-83
2023/11/29 09:57:40;;;;;;;33.70;13.70;;;-2.20;99.90;;;;;;4935995;29;20191;-85
2023/11/29 10:00:10;;;;;;;34.40;13.13;;;-2.00;99.90;;;;;;4935146;29;20614;-83
2023/11/29 10:02:41;;;;;;;32.13;12.53;;;-1.90;99.90;;;;;;4935728;29;20206;-84
2023/11/29 10:05:10;;;;;;;32.83;12.87;;;-1.90;99.90;;;;;;4936846;29;20388;-84
2023/11/29 10:07:39;;;;;;;32.33;12.67;;;-1.90;99.90;;;;;;4951166;29;20246;-89
2023/11/29 10:10:07;;;;;;;33.37;13.00;;;-1.90;99.90;;;;;;4936398;29;20227;-88
2023/11/29 10:12:38;;;;;;;30.07;12.90;;;-2.00;99.90;;;;;;4906069;29;20267;-88
2023/11/29 10:15:09;;;;;;;33.30;13.30;;;-1.90;99.90;;;;;;4939379;29;20188;-89
2023/11/29 10:17:43;;;;;;;33.43;12.87;;;-1.90;99.90;;;;;;4936136;29;20288;-87
2023/11/29 10:20:13;;;;;;;34.53;14.07;;;-1.90;99.90;;;;;;4935960;29;20534;-84
2023/11/29 10:22:41;;;;;;;35.10;13.63;;;-1.70;99.90;;;;;;4935311;29;20195;-87
2023/11/29 10:25:20;;;;;;;35.87;13.97;;;-1.70;99.90;;;;;;4935756;29;20192;-87
2023/11/29 10:27:48;;;;;;;35.80;11.90;;;-1.70;99.90;;;;;;4919490;29;20239;-86
2023/11/29 10:30:19;;;;;;;32.10;11.83;;;-1.60;99.90;;;;;;4934576;29;20279;-87
2023/11/29 10:32:48;;;;;;;30.47;11.87;;;-1.50;99.90;;;;;;4934790;29;20242;-86
2023/11/29 10:35:19;;;;;;;32.37;13.10;;;-1.50;99.90;;;;;;4934818;29;20715;-86
2023/11/29 10:38:21;;;;;;;30.77;12.63;;;-1.60;99.90;;;;;;4934678;29;20775;-85
2023/11/29 10:40:49;;;;;;;38.97;13.60;;;-1.60;99.90;;;;;;4898272;29;20725;-86
2023/11/29 10:43:23;;;;;;;32.43;12.67;;;-1.60;99.90;;;;;;4898296;29;20243;-86
2023/11/29 10:45:53;;;;;;;32.83;12.43;;;-1.60;99.90;;;;;;4914058;29;20197;-85
2023/11/29 10:48:25;;;;;;;31.30;12.10;;;-1.80;99.90;;;;;;4914337;29;20288;-84
2023/11/29 10:50:53;;;;;;;28.53;11.60;;;-1.80;99.90;;;;;;4914528;29;20209;-85
2023/11/29 10:53:21;;;;;;;32.00;12.40;;;-1.60;99.90;;;;;;4914106;29;20332;-84
2023/11/29 10:55:50;;;;;;;31.30;12.20;;;-1.40;99.90;;;;;;4898142;29;20296;-87
2023/11/29 10:58:25;;;;;;;30.40;11.60;;;-1.60;99.90;;;;;;4882703;29;20311;-86
2023/11/29 11:00:53;;;;;;;24.97;10.20;;;-1.50;99.90;;;;;;4913926;29;20200;-87
2023/11/29 11:03:45;;;;;;;28.70;10.63;;;-1.40;99.90;;;;;;4898365;29;20209;-87
2023/11/29 11:06:21;;;;;;;28.70;10.60;;;-1.50;99.90;;;;;;4913945;29;20284;-87
2023/11/29 11:08:50;;;;;;;26.70;10.37;;;-1.40;99.90;;;;;;4913541;29;20215;-88
2023/11/29 11:11:47;;;;;;;24.47;10.60;;;-1.40;99.90;;;;;;4898067;29;20219;-87
2023/11/29 11:14:22;;;;;;;30.70;10.93;;;-1.30;99.90;;;;;;4913670;29;20708;-87
2023/11/29 11:17:07;;;;;;;27.63;10.63;;;-1.30;99.90;;;;;;4920021;29;20225;-88
2023/11/29 11:19:38;;;;;;;28.43;10.10;;;-1.10;99.90;;;;;;4918742;29;20209;-86
2023/11/29 11:22:12;;;;;;;25.37;9.73;;;-1.10;99.90;;;;;;4933873;29;20246;-85
2023/11/29 11:25:03;;;;;;;22.33;9.17;;;-1.10;99.90;;;;;;4920897;29;20279;-89
2023/11/29 11:27:35;;;;;;;24.80;8.73;;;-1.10;99.90;;;;;;4934446;29;20205;-87
2023/11/29 11:30:09;;;;;;;22.63;9.03;;;-1.10;99.90;;;;;;4933764;29;20206;-86
2023/11/29 11:32:47;;;;;;;19.33;8.30;;;-1.00;99.90;;;;;;4933554;29;20487;-86
2023/11/29 11:37:51;;;;;;;19.40;8.67;;;-1.10;99.90;;;;;;4933361;29;20200;-84
2023/11/29 11:40:20;;;;;;;19.00;8.17;;;-1.10;99.90;;;;;;4933647;29;20668;-86
2023/11/29 11:42:48;;;;;;;19.43;8.27;;;-1.10;99.90;;;;;;4933476;29;20289;-84
2023/11/29 11:45:18;;;;;;;19.33;8.37;;;-1.10;99.90;;;;;;4937125;29;20200;-84
2023/11/29 11:47:46;;;;;;;20.83;8.00;;;-1.20;99.90;;;;;;4936992;29;20660;-88
2023/11/29 11:50:16;;;;;;;20.60;8.17;;;-1.00;99.90;;;;;;4952856;29;20203;-85
2023/11/29 11:52:48;;;;;;;24.80;8.03;;;-0.80;99.90;;;;;;4940730;29;20225;-87
2023/11/29 11:55:15;;;;;;;17.47;8.10;;;-0.80;99.90;;;;;;4938339;29;20229;-85
2023/11/29 11:57:46;;;;;;;22.10;7.67;;;-0.80;99.90;;;;;;4936834;29;20217;-84
2023/11/29 12:00:16;;;;;;;17.43;7.50;;;-0.60;99.90;;;;;;4952492;29;20751;-84
2023/11/29 12:02:44;;;;;;;16.10;7.20;;;-0.60;99.90;;;;;;4937850;29;20199;-84
2023/11/29 12:05:11;;;;;;;14.43;7.00;;;-0.80;99.90;;;;;;4936605;29;20200;-86
2023/11/29 12:07:41;;;;;;;17.73;6.93;;;-0.70;99.90;;;;;;4921327;29;20229;-86
2023/11/29 12:10:14;;;;;;;16.07;7.53;;;-0.60;99.90;;;;;;4936834;29;20664;-86
2023/11/29 12:12:43;;;;;;;15.37;7.40;;;-0.50;99.90;;;;;;4938055;29;20294;-87
2023/11/29 12:15:17;;;;;;;15.37;7.43;;;-0.50;99.90;;;;;;4938150;29;20226;-88
2023/11/29 12:17:48;;;;;;;12.77;7.00;;;-0.60;99.90;;;;;;4936842;29;20210;-86
2023/11/29 12:20:16;;;;;;;17.33;7.83;;;-0.50;99.90;;;;;;4936608;29;20254;-87
2023/11/29 12:22:49;;;;;;;19.07;8.07;;;-0.60;99.90;;;;;;4936697;29;20632;-83
2023/11/29 12:25:21;;;;;;;16.20;7.67;;;-0.80;99.90;;;;;;4936167;29;20203;-84
2023/11/29 12:27:50;;;;;;;15.97;7.17;;;-1.00;99.90;;;;;;4920605;29;20221;-84
2023/11/29 12:30:19;;;;;;;15.27;7.67;;;-0.80;99.90;;;;;;4937814;29;20201;-87
2023/11/29 12:32:47;;;;;;;17.20;7.70;;;-1.00;99.90;;;;;;4937932;29;20226;-84
2023/11/29 12:35:15;;;;;;;14.70;7.20;;;-1.10;99.90;;;;;;4936248;29;20217;-83
2023/11/29 12:37:45;;;;;;;13.63;6.67;;;-1.10;99.90;;;;;;4937732;29;20814;-84